Time;durP1;ratioP1;P1;durP2;ratioP2;P2;SDS_P1;SDS_P2;PMS_P1;PMS_P2;Temp;Humidity;BMP_temperature;BMP_pressure;BME280_temperature;BME280_humidity;BME280_pressure;Samples;Min_cycle;Max_cycle;Signal;HPM_P1;HPM_P2
2022/06/12 00:01:17;;;;;;;3.57;3.00;;;22.30;99.90;;;;;;5057468;28;20462;-81
2022/06/12 00:03:46;;;;;;;3.57;3.00;;;22.30;99.90;;;;;;5064640;28;20480;-81
2022/06/12 00:06:16;;;;;;;4.90;3.27;;;22.30;99.90;;;;;;5070580;28;20453;-81
2022/06/12 00:08:44;;;;;;;3.73;3.13;;;22.40;99.90;;;;;;5071042;28;20443;-81
2022/06/12 00:11:19;;;;;;;2.90;2.70;;;22.40;99.90;;;;;;5061392;28;20832;-81
2022/06/12 00:13:52;;;;;;;7.50;4.10;;;22.20;99.90;;;;;;5082022;28;20483;-81
2022/06/12 00:16:22;;;;;;;2.87;2.67;;;22.30;99.90;;;;;;5067650;28;21539;-81
2022/06/12 00:18:51;;;;;;;3.43;3.20;;;22.20;99.90;;;;;;5065655;28;20446;-81
2022/06/12 00:21:20;;;;;;;5.70;3.07;;;22.20;99.90;;;;;;5063633;28;20461;-81
2022/06/12 00:23:52;;;;;;;3.43;3.20;;;22.20;99.90;;;;;;5071207;28;20489;-82
2022/06/12 00:26:24;;;;;;;3.93;3.33;;;22.20;99.90;;;;;;5070287;28;20462;-81
2022/06/12 00:28:57;;;;;;;3.83;2.90;;;22.20;99.90;;;;;;5070752;28;20454;-81
2022/06/12 00:31:27;;;;;;;2.77;2.57;;;22.20;99.90;;;;;;5066566;28;20465;-81
2022/06/12 00:33:55;;;;;;;5.30;3.33;;;22.20;99.90;;;;;;5070212;28;20469;-81
2022/06/12 00:36:23;;;;;;;5.13;3.87;;;22.10;99.90;;;;;;5060991;28;20522;-81
2022/06/12 00:38:51;;;;;;;3.50;3.20;;;22.10;99.90;;;;;;5070494;28;20442;-81
2022/06/12 00:41:20;;;;;;;4.43;3.07;;;22.00;99.90;;;;;;5070467;28;20457;-81
2022/06/12 00:43:48;;;;;;;3.30;3.00;;;21.90;99.90;;;;;;5070209;28;20478;-81
2022/06/12 00:46:36;;;;;;;4.70;3.97;;;21.90;99.90;;;;;;5069491;28;20458;-81
2022/06/12 00:49:10;;;;;;;4.60;4.20;;;21.90;99.90;;;;;;5069040;28;20466;-81
2022/06/12 00:51:38;;;;;;;3.87;3.57;;;21.90;99.90;;;;;;5063521;28;21014;-81
2022/06/12 00:54:09;;;;;;;3.37;3.07;;;21.80;99.90;;;;;;5070297;28;20490;-81
2022/06/12 00:56:42;;;;;;;3.37;3.07;;;21.80;99.90;;;;;;5069640;28;20548;-81
2022/06/12 00:59:14;;;;;;;5.43;3.70;;;21.80;99.90;;;;;;5068268;28;20525;-81
2022/06/12 01:01:48;;;;;;;4.47;3.37;;;21.80;99.90;;;;;;5059883;28;20448;-81
2022/06/12 01:07:06;;;;;;;4.37;3.97;;;21.80;99.90;;;;;;5068929;28;21123;-81
2022/06/12 01:09:40;;;;;;;4.20;3.80;;;21.80;99.90;;;;;;5054964;28;20482;-81
2022/06/12 01:12:13;;;;;;;4.50;4.10;;;21.70;99.90;;;;;;5066737;28;20461;-81
2022/06/12 01:14:45;;;;;;;3.87;3.57;;;21.60;99.90;;;;;;5069580;28;20557;-81
2022/06/12 01:17:16;;;;;;;3.70;2.90;;;21.60;99.90;;;;;;5069122;28;20496;-81
2022/06/12 01:19:50;;;;;;;4.90;3.10;;;21.60;99.90;;;;;;5063703;28;20468;-81
2022/06/12 01:22:45;;;;;;;4.00;3.70;;;21.60;99.90;;;;;;5064036;28;20981;-81
2022/06/12 01:25:30;;;;;;;3.53;3.20;;;21.60;99.90;;;;;;5067959;28;21019;-81
2022/06/12 01:28:27;;;;;;;2.87;2.67;;;21.60;99.90;;;;;;5069437;28;20449;-81
2022/06/12 01:31:06;;;;;;;4.37;3.57;;;21.50;99.90;;;;;;5058782;28;20442;-82
2022/06/12 01:33:43;;;;;;;5.97;4.10;;;21.50;99.90;;;;;;5069364;28;20486;-82
2022/06/12 01:36:16;;;;;;;4.80;3.67;;;21.40;99.90;;;;;;5069074;28;20457;-82
2022/06/12 01:38:53;;;;;;;3.60;3.23;;;21.40;99.90;;;;;;5068338;28;20476;-81
2022/06/12 01:41:30;;;;;;;3.40;3.17;;;21.40;99.90;;;;;;5057159;28;21086;-81
2022/06/12 01:44:10;;;;;;;3.20;2.90;;;21.40;99.90;;;;;;5064803;28;20470;-81
2022/06/12 01:46:48;;;;;;;4.27;3.40;;;21.50;99.90;;;;;;5069038;28;20451;-81
2022/06/12 01:49:25;;;;;;;3.40;3.10;;;21.40;99.90;;;;;;5067323;28;20472;-81
2022/06/12 01:52:00;;;;;;;4.00;3.60;;;21.40;99.90;;;;;;5065339;28;20457;-80
2022/06/12 01:54:33;;;;;;;3.47;3.10;;;21.40;99.90;;;;;;5068738;28;20473;-81
2022/06/12 01:57:14;;;;;;;4.70;4.30;;;21.40;99.90;;;;;;5067688;28;20898;-81
2022/06/12 01:59:49;;;;;;;5.30;3.10;;;21.40;99.90;;;;;;5055288;28;20461;-81
2022/06/12 02:02:25;;;;;;;3.53;3.23;;;21.40;99.90;;;;;;5063284;28;20969;-81
2022/06/12 02:04:59;;;;;;;3.20;2.90;;;21.30;99.90;;;;;;5056519;28;20481;-81
2022/06/12 02:07:35;;;;;;;5.70;3.67;;;21.20;99.90;;;;;;5067036;28;20458;-81
2022/06/12 02:10:09;;;;;;;3.70;3.40;;;21.20;99.90;;;;;;5068626;28;20454;-81
2022/06/12 02:15:33;;;;;;;4.30;3.33;;;21.20;99.90;;;;;;5064972;28;20509;-81
2022/06/12 02:18:10;;;;;;;3.93;3.57;;;21.20;99.90;;;;;;5057206;28;20473;-81
2022/06/12 02:20:45;;;;;;;3.70;3.20;;;21.10;99.90;;;;;;5056618;28;20458;-81
2022/06/12 02:23:20;;;;;;;4.23;3.93;;;21.00;99.90;;;;;;5055075;28;20456;-82
2022/06/12 02:25:52;;;;;;;4.43;3.37;;;21.10;99.90;;;;;;5068284;28;20450;-81
2022/06/12 02:28:25;;;;;;;4.77;3.40;;;21.00;99.90;;;;;;5068913;28;20474;-81
2022/06/12 02:30:58;;;;;;;6.97;3.33;;;21.00;99.90;;;;;;5056509;28;20447;-81
2022/06/12 02:33:32;;;;;;;5.43;3.67;;;21.00;99.90;;;;;;5065798;28;20474;-81
2022/06/12 02:36:06;;;;;;;2.93;2.53;;;21.00;99.90;;;;;;5067987;28;20458;-82
2022/06/12 02:38:39;;;;;;;3.40;3.10;;;21.00;99.90;;;;;;5069789;28;20482;-81
2022/06/12 02:41:10;;;;;;;4.70;3.50;;;21.00;99.90;;;;;;5055696;28;20455;-81
2022/06/12 02:43:42;;;;;;;3.93;3.53;;;21.00;99.90;;;;;;5068996;28;21014;-80
2022/06/12 02:46:15;;;;;;;3.43;3.10;;;20.90;99.90;;;;;;5067670;28;20472;-81
2022/06/12 02:48:45;;;;;;;3.33;3.07;;;20.90;99.90;;;;;;5068617;28;20450;-81
2022/06/12 02:51:25;;;;;;;3.23;2.93;;;20.80;99.90;;;;;;5055825;28;20471;-81
2022/06/12 02:54:08;;;;;;;5.03;2.83;;;20.90;99.90;;;;;;5068555;28;20470;-81
2022/06/12 02:56:44;;;;;;;2.93;2.57;;;20.90;99.90;;;;;;5068144;28;20461;-81
2022/06/12 02:59:25;;;;;;;2.90;2.70;;;20.80;99.90;;;;;;5068761;28;20475;-81
2022/06/12 03:02:06;;;;;;;3.37;3.07;;;20.80;99.90;;;;;;5062691;28;20435;-81
2022/06/12 03:04:41;;;;;;;5.40;2.73;;;20.80;99.90;;;;;;5068671;28;20470;-81
2022/06/12 03:07:10;;;;;;;3.30;2.83;;;20.80;99.90;;;;;;5062522;28;20465;-81
2022/06/12 03:09:38;;;;;;;3.23;3.03;;;20.70;99.90;;;;;;5069918;28;20442;-81
2022/06/12 03:12:08;;;;;;;3.07;2.87;;;20.80;99.90;;;;;;5062250;28;20534;-81
2022/06/12 03:14:36;;;;;;;3.73;3.43;;;20.70;99.90;;;;;;5068201;28;20498;-81
2022/06/12 03:17:05;;;;;;;3.60;3.30;;;20.70;99.90;;;;;;5067644;28;20469;-81
2022/06/12 03:19:42;;;;;;;3.17;2.77;;;20.70;99.90;;;;;;5068566;28;20475;-82
2022/06/12 03:22:19;;;;;;;3.53;2.87;;;20.70;99.90;;;;;;5068571;28;20949;-81
2022/06/12 03:24:58;;;;;;;4.13;3.73;;;20.70;99.90;;;;;;5055014;28;20512;-81
2022/06/12 03:27:51;;;;;;;3.33;2.80;;;20.70;99.90;;;;;;5068196;28;20949;-81
2022/06/12 03:30:25;;;;;;;2.50;2.30;;;20.70;99.90;;;;;;5055925;28;20459;-81
2022/06/12 03:33:02;;;;;;;3.03;2.60;;;20.70;99.90;;;;;;5062719;28;20466;-81
2022/06/12 03:35:43;;;;;;;6.03;4.37;;;20.60;99.90;;;;;;5067356;28;20446;-81
2022/06/12 03:38:20;;;;;;;3.33;3.07;;;20.60;99.90;;;;;;5068099;28;20481;-82
2022/06/12 03:40:59;;;;;;;3.20;2.93;;;20.60;99.90;;;;;;5065491;28;20466;-81
2022/06/12 03:43:35;;;;;;;3.20;2.73;;;20.60;99.90;;;;;;5052185;28;20475;-81
2022/06/12 03:46:13;;;;;;;4.07;3.00;;;20.60;99.90;;;;;;5058013;28;20454;-81
2022/06/12 03:48:49;;;;;;;3.00;2.80;;;20.60;99.90;;;;;;5071801;28;20508;-81
2022/06/12 03:51:25;;;;;;;3.50;2.90;;;20.50;99.90;;;;;;5063006;28;20836;-81
2022/06/12 03:54:00;;;;;;;3.10;2.90;;;20.50;99.90;;;;;;5069417;28;20509;-81
2022/06/12 03:59:26;;;;;;;3.50;2.90;;;20.50;99.90;;;;;;5071638;28;20490;-81
2022/06/12 04:01:55;;;;;;;3.10;2.80;;;20.50;99.90;;;;;;5061862;28;20524;-81
2022/06/12 04:04:26;;;;;;;2.90;2.63;;;20.40;99.90;;;;;;5071019;28;20470;-81
2022/06/12 04:06:59;;;;;;;2.97;2.77;;;20.40;99.90;;;;;;5070792;28;20512;-81
2022/06/12 04:09:30;;;;;;;3.33;3.03;;;20.40;99.90;;;;;;5071789;28;20500;-81
2022/06/12 04:12:01;;;;;;;2.70;2.50;;;20.40;99.90;;;;;;5069064;28;20446;-81
2022/06/12 04:14:33;;;;;;;2.90;2.57;;;20.40;99.90;;;;;;5058526;28;20467;-81
2022/06/12 04:17:04;;;;;;;2.20;2.10;;;20.40;99.90;;;;;;5065391;28;20459;-81
2022/06/12 04:19:58;;;;;;;3.83;2.87;;;20.40;99.90;;;;;;5071635;28;20481;-81
2022/06/12 04:22:31;;;;;;;2.53;2.33;;;20.40;99.90;;;;;;5060656;28;20465;-81
2022/06/12 04:25:05;;;;;;;3.13;2.37;;;20.40;99.90;;;;;;5069905;28;20924;-81
2022/06/12 04:27:36;;;;;;;2.67;2.37;;;20.30;99.90;;;;;;5071256;28;20481;-81
2022/06/12 04:30:19;;;;;;;2.53;2.37;;;20.40;99.90;;;;;;5071670;28;20438;-80
2022/06/12 04:32:47;;;;;;;3.87;3.47;;;20.50;99.90;;;;;;5065465;28;20500;-81
2022/06/12 04:35:16;;;;;;;3.20;2.70;;;20.50;99.90;;;;;;5070887;28;20478;-81
2022/06/12 04:37:45;;;;;;;4.50;3.07;;;20.50;99.90;;;;;;5071055;28;20520;-81
2022/06/12 04:40:29;;;;;;;3.50;3.20;;;20.60;99.90;;;;;;5071385;28;20482;-81
2022/06/12 04:42:58;;;;;;;3.23;2.90;;;20.60;99.90;;;;;;5067144;28;20455;-81
2022/06/12 04:45:26;;;;;;;2.60;2.50;;;20.50;99.90;;;;;;5069509;28;20475;-81
2022/06/12 04:47:54;;;;;;;3.43;2.70;;;20.50;99.90;;;;;;5070931;28;20466;-81
2022/06/12 04:50:22;;;;;;;2.97;2.77;;;20.50;99.90;;;;;;5064456;28;20466;-81
2022/06/12 04:52:52;;;;;;;3.17;2.97;;;20.50;99.90;;;;;;5060320;28;20538;-81
2022/06/12 04:55:20;;;;;;;5.30;3.90;;;20.50;99.90;;;;;;5070249;28;20471;-81
2022/06/12 04:57:48;;;;;;;2.87;2.67;;;20.10;99.90;;;;;;5071562;28;20446;-81
2022/06/12 05:00:18;;;;;;;3.23;2.93;;;20.50;99.90;;;;;;5071317;28;20486;-81
2022/06/12 05:02:47;;;;;;;3.00;2.80;;;20.60;99.90;;;;;;5065096;28;20461;-81
2022/06/12 05:05:15;;;;;;;3.97;2.63;;;21.00;99.90;;;;;;5068712;28;20492;-82
2022/06/12 05:07:43;;;;;;;3.07;2.80;;;20.80;99.90;;;;;;5059845;28;20537;-81
2022/06/12 05:10:15;;;;;;;3.10;2.50;;;20.70;99.90;;;;;;5069995;28;20439;-81
2022/06/12 05:12:43;;;;;;;2.97;2.73;;;20.70;99.90;;;;;;5056128;28;20962;-81
2022/06/12 05:15:13;;;;;;;3.30;3.10;;;20.80;99.90;;;;;;5070477;28;20477;-81
2022/06/12 05:17:41;;;;;;;4.00;3.70;;;20.80;99.90;;;;;;5069870;28;20451;-81
2022/06/12 05:20:16;;;;;;;3.17;2.83;;;20.80;99.90;;;;;;5059538;28;20479;-81
2022/06/12 05:22:44;;;;;;;4.13;3.80;;;20.90;99.90;;;;;;5068519;28;20446;-81
2022/06/12 05:25:14;;;;;;;3.73;3.07;;;20.90;99.90;;;;;;5070125;28;20470;-81
2022/06/12 05:27:45;;;;;;;3.80;3.00;;;20.90;99.90;;;;;;5070931;28;20446;-81
2022/06/12 05:30:15;;;;;;;3.20;3.00;;;20.90;99.90;;;;;;5066463;28;20444;-81
2022/06/12 05:32:45;;;;;;;2.77;2.43;;;21.00;99.90;;;;;;5068469;28;20493;-81
2022/06/12 05:35:14;;;;;;;6.00;3.00;;;21.00;99.90;;;;;;5069620;28;20458;-81
2022/06/12 05:37:42;;;;;;;3.23;2.93;;;21.00;99.90;;;;;;5070077;28;20811;-81
2022/06/12 05:40:16;;;;;;;3.90;2.77;;;21.00;99.90;;;;;;5062479;28;20562;-81
2022/06/12 05:42:44;;;;;;;3.67;3.47;;;21.10;99.90;;;;;;5063743;28;20452;-81
2022/06/12 05:45:15;;;;;;;3.10;2.80;;;21.10;99.90;;;;;;5065743;28;20550;-81
2022/06/12 05:47:46;;;;;;;4.00;3.27;;;21.20;99.90;;;;;;5070609;28;20451;-81
2022/06/12 05:50:15;;;;;;;2.40;2.20;;;21.20;99.90;;;;;;5070711;28;20457;-81
2022/06/12 05:52:43;;;;;;;3.00;2.70;;;21.30;99.90;;;;;;5067932;28;20511;-81
2022/06/12 05:55:12;;;;;;;3.03;2.73;;;21.30;99.90;;;;;;5070723;28;21207;-81
2022/06/12 05:57:43;;;;;;;3.70;2.53;;;21.30;99.90;;;;;;5060340;28;20455;-81
2022/06/12 06:00:17;;;;;;;2.93;2.57;;;21.30;99.90;;;;;;5070884;28;20577;-81
2022/06/12 06:02:45;;;;;;;3.30;3.00;;;21.40;99.90;;;;;;5069905;28;20520;-81
2022/06/12 06:05:14;;;;;;;5.70;2.67;;;21.40;99.90;;;;;;5070820;28;21006;-82
2022/06/12 06:07:43;;;;;;;6.93;3.27;;;21.40;99.90;;;;;;5070368;28;20457;-80
2022/06/12 06:10:15;;;;;;;3.07;2.87;;;21.50;99.90;;;;;;5070463;28;20532;-81
2022/06/12 06:12:44;;;;;;;2.30;2.10;;;21.50;99.90;;;;;;5067259;28;20453;-81
2022/06/12 06:15:13;;;;;;;2.53;2.33;;;21.50;99.90;;;;;;5056820;28;21122;-81
2022/06/12 06:17:41;;;;;;;2.90;2.70;;;21.60;99.90;;;;;;5101652;28;20456;-82
2022/06/12 06:20:13;;;;;;;2.67;2.20;;;21.60;99.90;;;;;;5070070;28;20519;-81
2022/06/12 06:22:42;;;;;;;2.63;2.10;;;21.60;99.90;;;;;;5068990;28;20459;-81
2022/06/12 06:25:11;;;;;;;3.63;2.50;;;21.70;99.90;;;;;;5065199;28;20489;-81
2022/06/12 06:27:39;;;;;;;2.70;2.43;;;21.80;99.90;;;;;;5070262;28;20790;-81
2022/06/12 06:30:10;;;;;;;2.93;2.40;;;21.80;99.90;;;;;;5069447;28;20459;-81
2022/06/12 06:32:38;;;;;;;2.57;1.90;;;21.80;99.90;;;;;;5064575;28;20466;-81
2022/06/12 06:35:09;;;;;;;2.60;2.40;;;21.90;99.90;;;;;;5063927;28;20473;-80
2022/06/12 06:37:38;;;;;;;2.20;1.90;;;21.90;99.90;;;;;;5070652;28;20486;-81
2022/06/12 06:40:09;;;;;;;2.40;2.07;;;22.00;99.90;;;;;;5070409;28;20981;-81
2022/06/12 06:42:37;;;;;;;2.63;2.43;;;22.10;99.90;;;;;;5070262;28;20996;-81
2022/06/12 06:47:54;;;;;;;2.57;2.13;;;22.20;99.90;;;;;;5067495;28;20868;-81
2022/06/12 06:50:24;;;;;;;2.50;2.30;;;22.20;99.90;;;;;;5068144;28;20461;-81
2022/06/12 06:52:52;;;;;;;4.17;2.27;;;22.30;99.90;;;;;;5070161;28;21250;-81
2022/06/12 06:55:21;;;;;;;5.07;1.83;;;22.60;99.90;;;;;;5069823;28;20483;-82
2022/06/12 06:57:50;;;;;;;1.90;1.80;;;22.40;99.90;;;;;;5062645;28;20825;-81
2022/06/12 07:00:23;;;;;;;3.37;2.10;;;22.50;99.90;;;;;;5068296;28;20494;-81
2022/06/12 07:02:51;;;;;;;3.07;1.97;;;22.60;99.90;;;;;;5064131;28;20490;-81
2022/06/12 07:05:21;;;;;;;2.03;1.77;;;22.60;99.90;;;;;;5061834;28;21012;-81
2022/06/12 07:07:49;;;;;;;1.83;1.73;;;22.70;99.90;;;;;;5063579;28;20492;-81
2022/06/12 07:10:21;;;;;;;1.60;1.50;;;22.70;99.90;;;;;;5061178;28;20491;-82
2022/06/12 07:12:51;;;;;;;2.10;2.00;;;22.80;99.90;;;;;;5069373;28;20466;-81
2022/06/12 07:15:21;;;;;;;1.80;1.70;;;22.90;99.90;;;;;;5073086;28;20997;-81
2022/06/12 07:17:50;;;;;;;2.10;1.90;;;23.00;99.90;;;;;;5070500;28;20478;-81
2022/06/12 07:20:20;;;;;;;2.20;2.00;;;23.00;99.90;;;;;;5072532;28;20846;-81
2022/06/12 07:22:49;;;;;;;1.87;1.67;;;23.00;99.90;;;;;;5067577;28;20454;-81
2022/06/12 07:25:18;;;;;;;2.67;1.87;;;23.10;99.90;;;;;;5064271;28;20506;-81
2022/06/12 07:27:46;;;;;;;2.23;1.83;;;23.20;99.90;;;;;;5078502;28;20461;-81
2022/06/12 07:30:17;;;;;;;2.10;1.90;;;23.20;99.90;;;;;;5066804;28;20459;-81
2022/06/12 07:32:47;;;;;;;1.70;1.60;;;23.30;99.90;;;;;;5064233;28;20515;-81
2022/06/12 07:35:16;;;;;;;2.10;2.00;;;23.40;99.90;;;;;;5070984;28;20561;-81
2022/06/12 07:37:45;;;;;;;2.10;1.90;;;23.40;99.90;;;;;;5071662;28;20478;-81
2022/06/12 07:40:18;;;;;;;1.90;1.80;;;23.40;99.90;;;;;;5060151;28;20550;-81
2022/06/12 07:42:46;;;;;;;1.90;1.67;;;23.50;99.90;;;;;;5071250;28;20493;-81
2022/06/12 07:45:16;;;;;;;2.73;1.70;;;23.50;99.90;;;;;;5069379;28;20470;-81
2022/06/12 07:47:44;;;;;;;3.30;2.03;;;23.60;99.90;;;;;;5071234;28;20450;-81
2022/06/12 07:50:15;;;;;;;2.60;1.30;;;23.60;99.90;;;;;;5069596;28;20462;-81
2022/06/12 07:52:44;;;;;;;4.03;1.97;;;23.70;99.90;;;;;;5058251;28;21049;-80
2022/06/12 07:55:16;;;;;;;2.13;1.97;;;23.80;99.90;;;;;;5069767;28;20478;-81
2022/06/12 07:57:45;;;;;;;2.00;1.70;;;23.80;99.90;;;;;;5058035;28;20462;-81
2022/06/12 08:00:15;;;;;;;2.07;1.60;;;23.90;99.90;;;;;;5069161;28;21021;-81
2022/06/12 08:02:45;;;;;;;1.50;1.40;;;23.90;99.90;;;;;;5059277;28;21019;-81
2022/06/12 08:05:18;;;;;;;1.80;1.27;;;23.90;99.90;;;;;;5068608;28;20489;-81
2022/06/12 08:07:46;;;;;;;1.77;1.20;;;24.00;99.90;;;;;;5071178;28;20462;-81
2022/06/12 08:10:16;;;;;;;1.30;1.20;;;24.00;99.90;;;;;;5059872;28;20467;-81
2022/06/12 08:12:46;;;;;;;1.20;1.10;;;24.00;99.90;;;;;;5066910;28;20492;-81
2022/06/12 08:15:23;;;;;;;1.67;1.20;;;24.10;99.90;;;;;;5070080;28;20498;-81
2022/06/12 08:17:51;;;;;;;1.47;1.37;;;24.20;99.90;;;;;;5070712;28;20461;-81
2022/06/12 08:20:28;;;;;;;1.60;1.50;;;24.20;99.90;;;;;;5058736;28;20489;-81
2022/06/12 08:23:02;;;;;;;1.50;1.40;;;24.30;99.90;;;;;;5069517;28;20482;-81
2022/06/12 08:25:33;;;;;;;2.20;2.00;;;24.40;99.90;;;;;;5069516;28;20596;-81
2022/06/12 08:28:02;;;;;;;1.87;1.77;;;24.40;99.90;;;;;;5070440;28;20814;-81
2022/06/12 08:30:31;;;;;;;1.47;1.37;;;24.40;99.90;;;;;;5060876;28;20449;-81
2022/06/12 08:32:59;;;;;;;1.67;1.57;;;24.50;99.90;;;;;;5057609;28;20440;-81
2022/06/12 08:35:32;;;;;;;2.57;1.60;;;24.50;99.90;;;;;;5069760;28;20601;-81
2022/06/12 08:38:00;;;;;;;1.70;1.60;;;24.50;99.90;;;;;;5070362;28;20473;-81
2022/06/12 08:40:35;;;;;;;2.40;1.30;;;24.50;99.90;;;;;;5061179;28;20823;-80
2022/06/12 08:43:11;;;;;;;1.50;1.40;;;24.60;99.90;;;;;;5068456;28;20450;-81
2022/06/12 08:45:45;;;;;;;1.30;1.20;;;24.60;99.90;;;;;;5069730;28;20442;-81
2022/06/12 08:48:20;;;;;;;2.17;1.40;;;24.70;99.90;;;;;;5059053;28;20451;-81
2022/06/12 08:50:55;;;;;;;2.13;1.73;;;24.70;99.90;;;;;;5058831;28;20447;-81
2022/06/12 08:53:31;;;;;;;1.57;1.47;;;24.70;99.90;;;;;;5057083;28;20457;-82
2022/06/12 08:56:05;;;;;;;1.73;1.63;;;24.70;99.90;;;;;;5067895;28;20450;-81
2022/06/12 08:58:39;;;;;;;2.33;1.63;;;24.80;99.90;;;;;;5070185;28;20487;-81
2022/06/12 09:01:07;;;;;;;2.23;1.60;;;24.80;99.90;;;;;;5069948;28;20471;-81
2022/06/12 09:03:42;;;;;;;1.53;1.43;;;25.00;99.90;;;;;;5054011;28;20472;-81
2022/06/12 09:06:20;;;;;;;3.13;1.57;;;25.00;99.90;;;;;;5064535;28;20446;-81
2022/06/12 09:08:55;;;;;;;2.87;1.47;;;25.10;99.90;;;;;;5070111;28;20458;-81
2022/06/12 09:11:30;;;;;;;2.07;1.67;;;25.20;99.90;;;;;;5068302;28;20462;-81
2022/06/12 09:14:04;;;;;;;2.23;1.70;;;25.20;99.90;;;;;;5066213;28;20501;-81
2022/06/12 09:16:41;;;;;;;1.60;1.50;;;25.20;99.90;;;;;;5069453;28;20927;-81
2022/06/12 09:19:21;;;;;;;1.50;1.40;;;25.20;99.90;;;;;;5070152;28;20919;-81
2022/06/12 09:22:01;;;;;;;1.43;1.33;;;25.30;99.90;;;;;;5057524;28;20474;-81
2022/06/12 09:24:41;;;;;;;2.63;1.50;;;25.40;99.90;;;;;;5069075;28;20485;-81
2022/06/12 09:27:15;;;;;;;2.57;1.40;;;25.40;99.90;;;;;;5068995;28;20450;-82
2022/06/12 09:29:51;;;;;;;1.40;1.30;;;25.40;99.90;;;;;;5069804;28;20473;-81
2022/06/12 09:32:30;;;;;;;1.73;1.20;;;25.40;99.90;;;;;;5063198;28;20463;-81
2022/06/12 09:35:09;;;;;;;1.67;1.30;;;25.40;99.90;;;;;;5065690;28;20466;-81
2022/06/12 09:40:48;;;;;;;2.73;1.67;;;25.50;99.90;;;;;;5055238;28;20541;-81
2022/06/12 09:43:24;;;;;;;1.33;1.23;;;25.60;99.90;;;;;;5060762;28;20442;-81
2022/06/12 09:45:59;;;;;;;1.60;1.50;;;25.70;99.90;;;;;;5068118;28;20462;-81
2022/06/12 09:48:57;;;;;;;2.47;1.40;;;25.70;99.90;;;;;;5068918;28;21060;-81
2022/06/12 09:51:36;;;;;;;1.40;1.30;;;25.60;99.90;;;;;;5059513;28;20459;-81
2022/06/12 09:54:21;;;;;;;2.83;1.50;;;25.60;99.90;;;;;;5068310;28;20565;-81
2022/06/12 09:56:54;;;;;;;1.50;1.40;;;25.70;99.90;;;;;;5067182;28;20458;-81
2022/06/12 09:59:31;;;;;;;1.80;1.70;;;25.70;99.90;;;;;;5067976;28;20446;-82
2022/06/12 10:02:05;;;;;;;1.70;1.60;;;25.70;99.90;;;;;;5068776;28;20482;-81
2022/06/12 10:04:41;;;;;;;2.10;1.97;;;25.70;99.90;;;;;;5055404;28;20477;-81
2022/06/12 10:07:16;;;;;;;1.90;1.80;;;25.60;99.90;;;;;;5068315;28;20816;-81
2022/06/12 10:09:51;;;;;;;2.23;2.03;;;25.50;99.90;;;;;;5068991;28;20797;-82
2022/06/12 10:12:25;;;;;;;2.43;1.70;;;25.50;99.90;;;;;;5064158;28;20461;-81
2022/06/12 10:14:58;;;;;;;1.70;1.60;;;25.60;99.90;;;;;;5068479;28;20470;-81
2022/06/12 10:17:32;;;;;;;1.87;1.30;;;25.70;99.90;;;;;;5068043;28;20447;-81
2022/06/12 10:20:05;;;;;;;1.37;1.27;;;25.80;99.90;;;;;;5068463;28;20457;-81
2022/06/12 10:22:37;;;;;;;1.50;1.40;;;25.80;99.90;;;;;;5060764;28;20537;-82
2022/06/12 10:25:09;;;;;;;1.50;1.40;;;25.90;99.90;;;;;;5067716;28;20482;-81
2022/06/12 10:27:42;;;;;;;2.50;1.70;;;26.00;99.90;;;;;;5068558;28;20455;-81
2022/06/12 10:30:25;;;;;;;1.80;1.70;;;26.00;99.90;;;;;;5058636;28;20487;-81
2022/06/12 10:32:56;;;;;;;1.87;1.77;;;26.20;99.90;;;;;;5067117;28;20818;-80
2022/06/12 10:35:27;;;;;;;1.60;1.50;;;26.20;99.90;;;;;;5057926;28;20483;-81
2022/06/12 10:38:06;;;;;;;2.17;1.30;;;26.30;99.90;;;;;;5068355;28;20461;-81
2022/06/12 10:40:36;;;;;;;2.83;1.57;;;26.40;99.90;;;;;;5068294;28;20434;-81
2022/06/12 10:43:08;;;;;;;2.50;1.47;;;26.40;99.90;;;;;;5058413;28;20474;-81
2022/06/12 10:45:39;;;;;;;1.30;1.20;;;26.40;99.90;;;;;;5066339;28;20446;-81
2022/06/12 10:48:26;;;;;;;1.63;1.23;;;26.40;99.90;;;;;;5070429;28;20447;-81
2022/06/12 10:50:57;;;;;;;1.70;1.60;;;26.50;99.90;;;;;;5073574;28;20828;-80
2022/06/12 10:53:27;;;;;;;2.33;1.43;;;26.40;99.90;;;;;;5063558;28;20516;-81
2022/06/12 10:56:03;;;;;;;1.40;1.33;;;26.40;99.90;;;;;;5067995;28;20529;-81
2022/06/12 10:59:09;;;;;;;1.40;1.30;;;26.50;99.90;;;;;;5072794;28;20442;-82
2022/06/12 11:01:46;;;;;;;1.20;1.10;;;26.50;99.90;;;;;;5062494;28;20482;-81
2022/06/12 11:04:37;;;;;;;1.60;1.33;;;26.50;99.90;;;;;;5068812;28;20469;-81
2022/06/12 11:07:24;;;;;;;1.50;1.40;;;26.50;99.90;;;;;;5070843;28;20442;-81
2022/06/12 11:10:12;;;;;;;2.03;1.40;;;26.50;99.90;;;;;;5073215;28;20461;-81
2022/06/12 11:13:01;;;;;;;1.50;1.40;;;26.50;99.90;;;;;;5062322;28;20461;-81
2022/06/12 11:15:51;;;;;;;1.50;1.40;;;26.50;99.90;;;;;;5072091;28;20462;-81
2022/06/12 11:18:28;;;;;;;1.00;1.00;;;26.50;99.90;;;;;;5059438;28;20471;-81
2022/06/12 11:21:05;;;;;;;2.50;1.33;;;26.50;99.90;;;;;;5065806;28;20482;-81
2022/06/12 11:23:55;;;;;;;1.40;1.30;;;26.60;99.90;;;;;;5060889;28;20547;-81
2022/06/12 11:26:58;;;;;;;1.50;1.40;;;26.60;99.90;;;;;;5068505;28;20902;-81
2022/06/12 11:29:46;;;;;;;1.30;1.20;;;26.60;99.90;;;;;;5065804;28;20449;-82
2022/06/12 11:32:21;;;;;;;1.40;1.30;;;26.60;99.90;;;;;;5061425;28;20465;-81
2022/06/12 11:35:05;;;;;;;2.00;1.90;;;26.60;99.90;;;;;;5073166;28;20993;-81
2022/06/12 11:37:48;;;;;;;1.63;1.53;;;26.60;99.90;;;;;;5070940;28;20459;-81
2022/06/12 11:40:24;;;;;;;1.50;1.40;;;26.60;99.90;;;;;;5071838;28;20965;-81
2022/06/12 11:43:08;;;;;;;1.50;1.40;;;26.60;99.90;;;;;;5071653;28;20527;-81
2022/06/12 11:46:07;;;;;;;1.40;1.30;;;26.60;99.90;;;;;;5071080;28;20470;-81
2022/06/12 11:49:16;;;;;;;2.30;1.50;;;26.60;99.90;;;;;;5060015;28;20455;-81
2022/06/12 11:51:54;;;;;;;1.53;1.40;;;26.60;99.90;;;;;;5022008;28;20458;-81
2022/06/12 11:54:42;;;;;;;1.77;1.67;;;26.50;99.90;;;;;;5060432;28;20562;-81
2022/06/12 11:57:21;;;;;;;1.83;1.50;;;26.50;99.90;;;;;;5062873;28;20528;-81
2022/06/12 12:00:04;;;;;;;1.40;1.30;;;26.60;99.90;;;;;;5065971;28;20455;-81
2022/06/12 12:02:56;;;;;;;2.27;1.50;;;26.60;99.90;;;;;;5070869;28;20462;-81
2022/06/12 12:05:40;;;;;;;1.70;1.60;;;26.60;99.90;;;;;;5068730;28;20481;-81
2022/06/12 12:08:21;;;;;;;2.13;1.77;;;26.60;99.90;;;;;;5060053;28;20450;-82
2022/06/12 12:10:55;;;;;;;2.60;2.47;;;26.70;99.90;;;;;;5062729;28;20951;-81
2022/06/12 12:13:33;;;;;;;2.03;1.70;;;26.70;99.90;;;;;;5063343;28;20451;-80
2022/06/12 12:16:08;;;;;;;1.87;1.70;;;26.60;99.90;;;;;;5069904;28;20465;-81
2022/06/12 12:18:41;;;;;;;1.77;1.67;;;26.70;99.90;;;;;;5070873;28;20450;-81
2022/06/12 12:21:14;;;;;;;1.60;1.50;;;26.70;99.90;;;;;;5060811;28;20455;-81
2022/06/12 12:23:46;;;;;;;1.63;1.53;;;26.70;99.90;;;;;;5068706;28;20539;-81
2022/06/12 12:26:23;;;;;;;4.50;1.70;;;26.70;99.90;;;;;;5070033;28;20450;-81
2022/06/12 12:28:54;;;;;;;2.17;1.60;;;26.70;99.90;;;;;;5069147;28;20465;-81
2022/06/12 12:31:23;;;;;;;1.77;1.67;;;26.70;99.90;;;;;;5070530;28;20524;-81
2022/06/12 12:33:55;;;;;;;1.80;1.70;;;26.70;99.90;;;;;;5064891;28;20482;-81
2022/06/12 12:42:26;;;;;;;1.80;1.70;;;27.00;99.90;;;;;;5057777;28;20460;-81
2022/06/12 12:44:54;;;;;;;2.23;2.03;;;27.00;99.90;;;;;;5065913;28;20458;-81
2022/06/12 12:47:26;;;;;;;1.67;1.57;;;27.10;99.90;;;;;;5069770;28;20458;-81
2022/06/12 12:50:08;;;;;;;2.03;1.93;;;27.20;99.90;;;;;;5070074;28;20477;-81
2022/06/12 12:52:44;;;;;;;3.10;1.70;;;27.30;99.90;;;;;;5066182;28;20454;-81
2022/06/12 12:55:26;;;;;;;1.70;1.60;;;27.30;99.90;;;;;;5068982;28;20450;-82
2022/06/12 12:57:56;;;;;;;3.10;1.80;;;27.40;99.90;;;;;;5069765;28;20503;-81
2022/06/12 13:00:33;;;;;;;1.60;1.50;;;27.40;99.90;;;;;;5069797;28;20438;-81
2022/06/12 13:03:09;;;;;;;1.47;1.37;;;27.50;99.90;;;;;;5056459;28;20474;-81
2022/06/12 13:06:01;;;;;;;1.73;1.63;;;27.50;99.90;;;;;;5058134;28;20450;-82
2022/06/12 13:08:47;;;;;;;1.70;1.60;;;27.60;99.90;;;;;;5069741;28;20447;-81
2022/06/12 13:11:29;;;;;;;1.70;1.60;;;27.70;99.90;;;;;;5068629;28;20484;-82
2022/06/12 13:14:11;;;;;;;2.37;1.50;;;27.70;99.90;;;;;;5071746;28;20474;-81
2022/06/12 13:16:56;;;;;;;2.80;1.70;;;27.70;99.90;;;;;;5069000;28;20446;-81
2022/06/12 13:19:58;;;;;;;2.13;1.83;;;27.80;99.90;;;;;;5059461;28;20461;-81
2022/06/12 13:22:41;;;;;;;1.53;1.43;;;27.80;99.90;;;;;;5069283;28;20696;-81
2022/06/12 13:25:14;;;;;;;2.17;1.50;;;27.80;99.90;;;;;;5068908;28;21020;-81
2022/06/12 13:27:52;;;;;;;1.60;1.50;;;27.80;99.90;;;;;;5068104;28;20862;-81
2022/06/12 13:30:23;;;;;;;1.63;1.50;;;27.80;99.90;;;;;;5069731;28;20439;-82
2022/06/12 13:32:51;;;;;;;1.73;1.63;;;27.80;99.90;;;;;;5069361;28;20467;-81
2022/06/12 13:35:33;;;;;;;2.27;1.50;;;27.80;99.90;;;;;;5063250;28;20479;-82
2022/06/12 13:38:05;;;;;;;1.70;1.60;;;27.70;99.90;;;;;;5064179;28;20515;-82
2022/06/12 13:40:39;;;;;;;1.67;1.57;;;27.70;99.90;;;;;;5069376;28;20580;-81
2022/06/12 13:43:14;;;;;;;1.80;1.70;;;27.60;99.90;;;;;;5066108;28;20561;-81
2022/06/12 13:45:54;;;;;;;1.70;1.60;;;27.60;99.90;;;;;;5068892;28;20470;-81